Time;durP1;ratioP1;P1;durP2;ratioP2;P2;SDS_P1;SDS_P2;PMS_P1;PMS_P2;Temp;Humidity;BMP_temperature;BMP_pressure;BME280_temperature;BME280_humidity;BME280_pressure;Samples;Min_cycle;Max_cycle;Signal;HPM_P1;HPM_P2
2023/09/27 00:02:00;;;;;;;8.85;5.75;;;13.80;99.90;;;;;;4889393;29;20089;-73
2023/09/27 00:04:28;;;;;;;9.75;6.38;;;13.80;99.90;;;;;;4889084;29;20017;-74
2023/09/27 00:06:53;;;;;;;9.48;6.40;;;13.70;99.90;;;;;;4889911;29;20052;-74
2023/09/27 00:09:19;;;;;;;8.93;6.32;;;13.60;99.90;;;;;;4889186;29;20033;-74
2023/09/27 00:11:45;;;;;;;10.00;6.00;;;13.60;99.90;;;;;;4889653;29;20040;-75
2023/09/27 00:14:10;;;;;;;8.93;6.30;;;13.60;99.90;;;;;;4892875;29;20327;-73
2023/09/27 00:16:36;;;;;;;9.98;6.07;;;13.60;99.90;;;;;;4893191;29;20092;-72
2023/09/27 00:19:05;;;;;;;10.02;5.65;;;13.50;99.90;;;;;;4892998;29;20025;-73
2023/09/27 00:21:31;;;;;;;8.57;6.00;;;13.50;99.90;;;;;;4888134;29;20057;-74
2023/09/27 00:23:56;;;;;;;10.32;5.95;;;13.60;99.90;;;;;;4885324;29;20043;-74
2023/09/27 00:26:22;;;;;;;9.95;6.40;;;13.60;99.90;;;;;;4888685;29;20025;-74
2023/09/27 00:28:48;;;;;;;8.73;5.90;;;13.50;99.90;;;;;;4872638;29;20065;-73
2023/09/27 05:53:24;;;;;;;9.77;5.43;;;11.80;99.90;;;;;;4887238;29;20092;-78
2023/09/27 05:55:52;;;;;;;8.45;5.93;;;11.80;99.90;;;;;;4888461;29;20056;-75
2023/09/27 05:58:19;;;;;;;9.30;6.40;;;11.80;99.90;;;;;;4888628;29;20037;-76
2023/09/27 06:00:47;;;;;;;9.52;6.80;;;11.90;99.90;;;;;;4887818;29;20029;-75
2023/09/27 06:03:13;;;;;;;9.23;6.20;;;12.00;99.90;;;;;;4887370;29;20310;-75
2023/09/27 06:05:39;;;;;;;12.10;6.63;;;12.00;99.90;;;;;;4886931;29;20210;-77
2023/09/27 06:08:05;;;;;;;9.95;6.47;;;12.10;99.90;;;;;;4893090;29;20021;-76
2023/09/27 06:10:31;;;;;;;9.30;6.20;;;12.20;99.90;;;;;;4888420;29;20040;-77
2023/09/27 06:12:57;;;;;;;7.65;6.03;;;12.30;99.90;;;;;;4895905;29;20017;-76
2023/09/27 06:15:22;;;;;;;9.52;5.97;;;12.50;99.90;;;;;;4889907;29;20040;-77
2023/09/27 06:17:51;;;;;;;9.60;6.22;;;12.60;99.90;;;;;;4880549;29;20092;-77
2023/09/27 06:20:20;;;;;;;9.27;5.97;;;12.70;99.90;;;;;;4886103;29;20025;-77
2023/09/27 06:22:52;;;;;;;8.50;6.05;;;12.70;99.90;;;;;;4887030;29;20221;-76
2023/09/27 06:25:18;;;;;;;9.15;6.70;;;12.80;99.90;;;;;;4887791;29;20036;-76
2023/09/27 06:27:44;;;;;;;9.55;6.35;;;12.90;99.90;;;;;;4885847;29;20064;-76
2023/09/27 06:30:11;;;;;;;9.90;6.95;;;13.00;99.90;;;;;;4889186;29;20112;-76
2023/09/27 06:32:39;;;;;;;11.57;6.70;;;13.00;99.90;;;;;;4886856;29;20073;-77
2023/09/27 06:35:12;;;;;;;9.25;7.03;;;13.10;99.90;;;;;;4890284;29;20041;-76
2023/09/27 06:37:40;;;;;;;10.85;7.43;;;13.20;99.90;;;;;;4887157;29;20048;-76
2023/09/27 06:40:09;;;;;;;10.52;7.60;;;13.20;99.90;;;;;;4891000;29;20234;-76
2023/09/27 06:42:35;;;;;;;11.27;6.82;;;13.30;99.90;;;;;;4890230;29;20213;-77
2023/09/27 06:45:01;;;;;;;10.27;6.53;;;13.30;99.90;;;;;;4890429;29;20069;-77
2023/09/27 06:47:28;;;;;;;12.60;6.82;;;13.40;99.90;;;;;;4890188;29;20029;-76
2023/09/27 06:49:55;;;;;;;9.70;6.82;;;13.40;99.90;;;;;;4880325;29;20025;-76
2023/09/27 06:52:22;;;;;;;13.00;7.15;;;13.50;99.90;;;;;;4891086;29;20044;-76
2023/09/27 06:54:48;;;;;;;10.48;6.78;;;13.60;99.90;;;;;;4890232;29;20060;-76
2023/09/27 06:57:17;;;;;;;10.63;6.28;;;13.60;99.90;;;;;;4891073;29;20210;-77
2023/09/27 06:59:45;;;;;;;11.80;6.30;;;13.80;99.90;;;;;;4883026;29;20044;-76
2023/09/27 07:02:11;;;;;;;10.68;6.72;;;13.80;99.90;;;;;;4892045;29;20033;-76
2023/09/27 07:04:38;;;;;;;14.90;7.45;;;13.90;99.90;;;;;;4895717;29;20036;-74
2023/09/27 07:07:05;;;;;;;15.02;7.75;;;13.90;99.90;;;;;;4893236;29;20062;-76
2023/09/27 07:09:34;;;;;;;9.75;7.00;;;14.00;99.90;;;;;;4889808;29;20053;-76
2023/09/27 07:12:00;;;;;;;12.85;6.38;;;14.00;99.90;;;;;;4890944;29;20029;-76
2023/09/27 07:14:28;;;;;;;9.07;6.13;;;14.10;99.90;;;;;;4873733;29;20109;-75
2023/09/27 07:16:53;;;;;;;8.73;5.65;;;14.10;99.90;;;;;;4890042;29;20037;-75
2023/09/27 07:19:19;;;;;;;9.63;5.57;;;14.20;99.90;;;;;;4890464;29;20214;-77
2023/09/27 07:21:45;;;;;;;11.27;5.45;;;14.20;99.90;;;;;;4889982;29;20369;-77
2023/09/27 07:24:11;;;;;;;14.27;6.72;;;14.30;99.90;;;;;;4890512;29;20108;-76
2023/09/27 07:26:41;;;;;;;9.15;6.05;;;14.40;99.90;;;;;;4889696;29;20021;-77
2023/09/27 07:29:07;;;;;;;11.40;6.03;;;14.40;99.90;;;;;;4890778;29;20041;-76
2023/09/27 07:31:33;;;;;;;11.10;5.78;;;14.50;99.90;;;;;;4890302;29;20100;-77
2023/09/27 07:34:00;;;;;;;10.90;5.95;;;14.60;99.90;;;;;;4890471;29;20095;-77
2023/09/27 07:36:26;;;;;;;10.02;5.65;;;14.60;99.90;;;;;;4890359;29;20048;-77
2023/09/27 07:38:52;;;;;;;9.40;6.13;;;14.60;99.90;;;;;;4889949;29;20101;-77
2023/09/27 07:41:20;;;;;;;9.68;6.00;;;14.70;99.90;;;;;;4890018;29;20215;-76
2023/09/27 07:43:47;;;;;;;9.68;6.22;;;14.70;99.90;;;;;;4889759;29;20033;-76
2023/09/27 07:46:14;;;;;;;9.20;5.60;;;14.90;99.90;;;;;;4889090;29;20033;-76
2023/09/27 07:48:42;;;;;;;11.20;5.57;;;15.00;99.90;;;;;;4888965;29;20227;-76
2023/09/27 07:51:11;;;;;;;11.27;5.85;;;15.00;99.90;;;;;;4890078;29;20293;-78
2023/09/27 07:53:37;;;;;;;11.38;5.47;;;15.10;99.90;;;;;;4889581;29;20093;-77
2023/09/27 07:56:04;;;;;;;10.60;5.90;;;15.20;99.90;;;;;;4889858;29;20029;-76
2023/09/27 07:58:29;;;;;;;8.82;5.47;;;15.20;99.90;;;;;;4888630;29;20036;-76
2023/09/27 08:00:55;;;;;;;9.35;5.43;;;15.30;99.90;;;;;;4888197;29;20483;-76
2023/09/27 08:03:21;;;;;;;9.15;5.38;;;15.40;99.90;;;;;;4888346;29;20028;-78
2023/09/27 08:05:49;;;;;;;6.85;4.90;;;15.50;99.90;;;;;;4888200;29;20031;-77
2023/09/27 08:08:15;;;;;;;10.90;5.83;;;15.60;99.90;;;;;;4886606;29;20036;-77
2023/09/27 08:10:45;;;;;;;7.82;5.03;;;15.70;99.90;;;;;;4889605;29;20107;-77
2023/09/27 08:13:17;;;;;;;7.13;4.57;;;15.80;99.90;;;;;;4889638;29;20199;-77
2023/09/27 08:15:46;;;;;;;8.85;5.30;;;15.90;99.90;;;;;;4889275;29;20035;-77
2023/09/27 08:18:12;;;;;;;8.88;4.90;;;16.00;99.90;;;;;;4890168;29;20043;-78
2023/09/27 08:20:38;;;;;;;9.85;5.53;;;16.20;99.90;;;;;;4888481;29;20318;-76
2023/09/27 08:23:04;;;;;;;18.35;6.78;;;16.20;99.90;;;;;;4889096;29;20070;-78
2023/09/27 08:25:30;;;;;;;29.65;6.60;;;16.40;99.90;;;;;;4889456;29;20037;-78
2023/09/27 08:27:56;;;;;;;21.33;6.40;;;16.60;99.90;;;;;;4887876;29;20051;-77
2023/09/27 08:30:22;;;;;;;14.38;5.35;;;16.70;99.90;;;;;;4889162;29;20318;-78
2023/09/27 08:32:48;;;;;;;9.63;4.85;;;16.90;99.90;;;;;;4888169;29;20263;-77
2023/09/27 08:35:14;;;;;;;9.25;4.78;;;17.00;99.90;;;;;;4889427;29;20033;-78
2023/09/27 08:37:40;;;;;;;8.52;5.75;;;17.10;99.90;;;;;;4888881;29;20073;-76
2023/09/27 08:40:12;;;;;;;9.30;4.55;;;17.20;99.90;;;;;;4887527;29;20104;-77
2023/09/27 08:42:40;;;;;;;10.63;4.57;;;17.40;99.90;;;;;;4888887;29;20290;-77
2023/09/27 08:45:11;;;;;;;13.20;5.50;;;17.50;99.90;;;;;;4888175;29;20071;-76
2023/09/27 08:47:42;;;;;;;9.77;4.40;;;17.60;99.90;;;;;;4887937;29;20047;-76
2023/09/27 08:50:11;;;;;;;11.38;4.30;;;17.80;99.90;;;;;;4888829;29;20033;-77
2023/09/27 08:52:38;;;;;;;5.57;3.70;;;17.90;99.90;;;;;;4889276;29;20068;-77
2023/09/27 08:55:06;;;;;;;6.63;3.97;;;18.00;99.90;;;;;;4888435;29;20029;-77
2023/09/27 08:57:35;;;;;;;7.00;3.50;;;18.20;99.90;;;;;;4888853;29;20032;-77
2023/09/27 09:00:01;;;;;;;6.25;3.40;;;18.30;99.90;;;;;;4887957;29;20045;-77
2023/09/27 09:02:28;;;;;;;5.95;3.47;;;18.50;99.90;;;;;;4887450;29;20345;-76
2023/09/27 09:04:54;;;;;;;9.40;3.58;;;18.50;99.90;;;;;;4886247;29;20100;-78
2023/09/27 09:07:22;;;;;;;8.57;3.40;;;18.50;99.90;;;;;;4887604;29;20043;-77
2023/09/27 09:10:02;;;;;;;6.70;3.70;;;18.60;99.90;;;;;;4887540;29;20056;-77
2023/09/27 09:12:27;;;;;;;10.63;3.53;;;18.70;99.90;;;;;;4887479;29;20040;-77
2023/09/27 09:14:54;;;;;;;6.00;3.58;;;18.80;99.90;;;;;;4887466;29;20041;-77
2023/09/27 09:17:25;;;;;;;8.20;4.30;;;18.80;99.90;;;;;;4883622;29;20069;-77
2023/09/27 09:20:21;;;;;;;8.68;3.67;;;18.90;99.90;;;;;;4887287;29;20056;-77
2023/09/27 09:22:50;;;;;;;8.98;4.00;;;18.90;99.90;;;;;;4886615;29;20037;-77
2023/09/27 09:25:15;;;;;;;;;;;19.00;99.90;;;;;;4888595;29;20040;-77
2023/09/27 09:27:41;;;;;;;9.55;3.60;;;19.20;99.50;;;;;;4888193;29;19908;-76
2023/09/27 09:30:11;;;;;;;9.23;4.10;;;19.20;99.30;;;;;;4888169;29;20073;-76
2023/09/27 09:32:50;;;;;;;8.07;4.28;;;19.40;98.90;;;;;;4888675;29;20053;-76
2023/09/27 09:35:30;;;;;;;7.93;4.18;;;19.40;98.80;;;;;;4888615;29;20045;-76
2023/09/27 09:38:01;;;;;;;8.02;3.72;;;19.50;98.60;;;;;;4887287;29;20326;-77
2023/09/27 09:40:28;;;;;;;7.10;3.90;;;19.60;98.40;;;;;;4868438;29;20025;-76
2023/09/27 09:42:57;;;;;;;7.53;3.55;;;19.70;98.30;;;;;;4887596;29;20065;-76
2023/09/27 09:45:23;;;;;;;70.85;10.15;;;19.80;97.90;;;;;;4887724;29;20036;-77
2023/09/27 09:47:49;;;;;;;15.85;4.82;;;20.00;97.70;;;;;;4887517;29;20040;-77
2023/09/27 09:50:18;;;;;;;10.27;3.38;;;20.10;97.60;;;;;;4884995;29;20032;-76
2023/09/27 09:52:57;;;;;;;8.25;3.58;;;20.20;97.10;;;;;;4887717;29;20136;-77
2023/09/27 09:55:25;;;;;;;61.28;9.80;;;20.30;96.80;;;;;;4888339;29;20318;-77
2023/09/27 09:57:56;;;;;;;17.10;4.32;;;20.50;96.90;;;;;;4886148;29;20041;-76
2023/09/27 10:00:30;;;;;;;16.63;4.05;;;20.50;96.10;;;;;;4885448;29;20044;-76
2023/09/27 10:03:01;;;;;;;9.38;3.28;;;20.70;95.80;;;;;;4886195;29;20117;-76
2023/09/27 10:05:37;;;;;;;6.20;2.90;;;20.80;94.80;;;;;;4888839;29;20081;-76
2023/09/27 10:08:07;;;;;;;5.03;2.50;;;20.90;94.00;;;;;;4890200;29;20382;-75
2023/09/27 10:10:34;;;;;;;5.88;2.72;;;21.00;93.70;;;;;;4893326;29;20196;-74
2023/09/27 10:13:05;;;;;;;5.30;2.58;;;21.10;93.20;;;;;;4889389;29;20089;-76
2023/09/27 10:15:34;;;;;;;4.72;2.55;;;21.20;93.50;;;;;;4887816;29;20029;-75
2023/09/27 10:18:22;;;;;;;5.85;2.67;;;21.40;93.10;;;;;;4887068;29;20173;-76
2023/09/27 10:21:17;;;;;;;6.25;2.50;;;21.50;92.80;;;;;;4883645;29;20033;-76
2023/09/27 10:23:46;;;;;;;4.28;2.15;;;21.60;92.90;;;;;;4860829;29;20053;-76
2023/09/27 10:26:25;;;;;;;7.25;2.30;;;21.70;92.40;;;;;;4886526;29;20322;-76
2023/09/27 10:29:16;;;;;;;5.32;2.65;;;21.80;92.40;;;;;;4885508;29;20139;-76
2023/09/27 10:31:56;;;;;;;3.97;2.30;;;21.90;91.70;;;;;;4884368;29;20033;-76
2023/09/27 10:34:25;;;;;;;3.72;2.40;;;22.00;91.50;;;;;;4886102;29;20045;-75
2023/09/27 10:36:51;;;;;;;6.93;2.92;;;22.20;91.20;;;;;;4886862;29;20074;-76
2023/09/27 10:39:17;;;;;;;4.97;2.67;;;22.30;91.20;;;;;;4887588;29;20037;-77
2023/09/27 10:41:53;;;;;;;4.47;2.40;;;22.50;91.00;;;;;;4887290;29;20025;-76
2023/09/27 10:44:50;;;;;;;6.63;2.50;;;22.70;90.50;;;;;;4887586;29;20039;-75
2023/09/27 10:47:26;;;;;;;5.97;2.42;;;23.00;89.20;;;;;;4875817;29;20049;-75
2023/09/27 10:49:51;;;;;;;3.75;2.50;;;23.20;89.30;;;;;;4887169;29;20040;-75
2023/09/27 10:52:18;;;;;;;5.57;2.30;;;23.50;88.90;;;;;;4887464;29;20083;-76
2023/09/27 10:54:45;;;;;;;5.75;2.63;;;23.90;87.50;;;;;;4887283;29;20303;-76
2023/09/27 10:57:13;;;;;;;6.88;2.40;;;24.20;86.00;;;;;;4886717;29;20369;-76
2023/09/27 10:59:39;;;;;;;4.15;2.10;;;24.60;85.30;;;;;;4887580;29;20037;-76
2023/09/27 11:02:06;;;;;;;4.93;2.17;;;25.20;82.30;;;;;;4887006;29;20041;-75
2023/09/27 11:04:33;;;;;;;5.13;2.07;;;26.20;79.80;;;;;;4887003;29;20040;-77
2023/09/27 11:06:59;;;;;;;4.40;2.30;;;26.90;77.70;;;;;;4886725;29;20052;-76
2023/09/27 11:09:26;;;;;;;3.60;1.80;;;28.00;74.30;;;;;;4883179;29;20024;-76
2023/09/27 11:11:54;;;;;;;5.10;1.88;;;28.80;70.80;;;;;;4886845;29;20041;-76
2023/09/27 11:14:33;;;;;;;3.85;1.83;;;29.60;67.90;;;;;;4886943;29;20045;-75
2023/09/27 11:17:14;;;;;;;8.27;1.73;;;30.40;66.20;;;;;;4886451;29;20033;-76
2023/09/27 11:19:39;;;;;;;3.38;1.52;;;31.00;64.60;;;;;;4887392;29;20037;-75
2023/09/27 11:22:05;;;;;;;4.28;1.30;;;31.50;61.90;;;;;;4889168;29;20235;-75
2023/09/27 11:24:40;;;;;;;4.10;1.80;;;32.00;59.90;;;;;;4890587;29;20044;-75
2023/09/27 11:27:07;;;;;;;3.95;1.65;;;32.30;59.90;;;;;;4890353;29;20052;-75
2023/09/27 11:29:33;;;;;;;4.40;1.30;;;33.20;59.20;;;;;;4886189;29;20337;-76
2023/09/27 11:31:59;;;;;;;3.90;1.30;;;33.30;58.10;;;;;;4888540;29;20033;-76
2023/09/27 11:34:24;;;;;;;5.80;1.55;;;33.80;57.10;;;;;;4890193;29;20025;-75
2023/09/27 11:36:53;;;;;;;3.35;1.60;;;33.90;55.60;;;;;;4890395;29;20025;-75
2023/09/27 11:39:26;;;;;;;3.63;1.55;;;33.90;55.60;;;;;;4890185;29;20021;-75
2023/09/27 11:41:59;;;;;;;3.03;1.50;;;33.60;55.00;;;;;;4889654;29;20048;-75
2023/09/27 11:44:26;;;;;;;2.67;1.10;;;33.90;55.50;;;;;;4890021;29;20104;-77
2023/09/27 11:47:10;;;;;;;3.30;1.30;;;34.50;53.90;;;;;;4889446;29;20040;-76
2023/09/27 11:49:36;;;;;;;2.90;1.15;;;35.10;52.50;;;;;;4890116;29;20037;-76
2023/09/27 11:52:10;;;;;;;2.95;1.48;;;35.60;52.30;;;;;;4889058;29;20053;-77
2023/09/27 11:54:41;;;;;;;4.80;1.60;;;36.10;52.10;;;;;;4874000;29;20096;-76
2023/09/27 11:57:08;;;;;;;4.78;1.23;;;36.50;51.20;;;;;;4886378;29;20049;-77
2023/09/27 11:59:33;;;;;;;4.03;1.40;;;36.90;50.10;;;;;;4886243;29;20314;-76
2023/09/27 12:01:59;;;;;;;3.35;1.25;;;37.10;49.90;;;;;;4889313;29;20032;-76
2023/09/27 12:04:25;;;;;;;3.22;1.00;;;37.20;49.30;;;;;;4889642;29;20041;-77
2023/09/27 12:06:50;;;;;;;4.78;1.67;;;37.40;50.00;;;;;;4889943;29;20037;-76
2023/09/27 12:09:16;;;;;;;3.42;1.52;;;37.70;48.90;;;;;;4885507;29;20051;-75
2023/09/27 12:11:42;;;;;;;2.53;1.20;;;38.00;48.70;;;;;;4889578;29;20033;-75
2023/09/27 12:14:07;;;;;;;4.53;1.10;;;38.30;48.40;;;;;;4889505;29;20029;-76
2023/09/27 12:16:33;;;;;;;6.50;1.73;;;37.70;48.90;;;;;;4889568;29;20021;-75
2023/09/27 12:18:59;;;;;;;6.68;1.98;;;37.70;49.40;;;;;;4889391;29;20076;-75
2023/09/27 12:21:24;;;;;;;3.80;1.50;;;38.20;48.80;;;;;;4889491;29;20044;-75
2023/09/27 12:23:50;;;;;;;3.45;2.20;;;38.50;48.30;;;;;;4889840;29;20211;-76
2023/09/27 12:26:16;;;;;;;2.55;1.60;;;38.10;47.90;;;;;;4888894;29;20029;-76
2023/09/27 12:28:42;;;;;;;2.38;0.85;;;37.80;47.60;;;;;;4887979;29;20037;-76
2023/09/27 12:31:08;;;;;;;3.83;0.82;;;37.90;47.90;;;;;;4888882;29;20311;-75
2023/09/27 12:33:35;;;;;;;25.15;4.75;;;38.70;47.40;;;;;;4889374;29;20044;-76
2023/09/27 12:36:02;;;;;;;2.40;1.10;;;39.00;47.30;;;;;;4889053;29;20044;-76
2023/09/27 12:38:30;;;;;;;3.15;0.90;;;38.60;47.00;;;;;;4889690;29;20021;-76
2023/09/27 12:40:56;;;;;;;2.83;1.15;;;38.90;47.10;;;;;;4888405;29;20118;-76
2023/09/27 12:43:22;;;;;;;3.83;1.13;;;39.90;46.40;;;;;;4889092;29;20044;-76
2023/09/27 12:45:48;;;;;;;2.95;1.08;;;40.10;46.20;;;;;;4888661;29;20095;-75
2023/09/27 12:48:14;;;;;;;3.63;1.20;;;40.90;46.10;;;;;;4888545;29;20045;-76
2023/09/27 12:50:44;;;;;;;2.95;1.02;;;40.80;45.50;;;;;;4888922;29;20037;-77
2023/09/27 12:53:09;;;;;;;7.10;1.30;;;41.20;45.00;;;;;;4888891;29;20044;-75
2023/09/27 12:55:38;;;;;;;2.53;1.10;;;41.40;45.40;;;;;;4888715;29;20036;-76
2023/09/27 12:58:04;;;;;;;2.33;1.00;;;41.60;45.10;;;;;;4887974;29;20219;-75
2023/09/27 13:00:30;;;;;;;3.10;1.10;;;41.70;44.50;;;;;;4888622;29;20025;-75
2023/09/27 13:02:57;;;;;;;2.35;1.13;;;41.80;43.80;;;;;;4888629;29;20039;-76
2023/09/27 13:05:22;;;;;;;;;;;41.40;44.90;;;;;;4872295;29;20045;-75
2023/09/27 13:07:48;;;;;;;3.23;1.00;;;41.90;43.80;;;;;;4888627;29;20105;-76
2023/09/27 13:10:14;;;;;;;9.38;2.20;;;42.60;43.50;;;;;;4888125;29;20043;-76
2023/09/27 13:12:39;;;;;;;2.42;0.70;;;42.60;44.60;;;;;;4888521;29;20056;-76
2023/09/27 13:15:05;;;;;;;2.65;1.00;;;41.60;43.60;;;;;;4887879;29;20311;-75
2023/09/27 13:17:31;;;;;;;2.05;1.00;;;41.70;42.90;;;;;;4888426;29;20152;-75
2023/09/27 13:20:00;;;;;;;5.03;0.98;;;41.40;43.20;;;;;;4888413;29;20033;-77
2023/09/27 13:22:25;;;;;;;3.72;0.90;;;40.80;43.30;;;;;;4888060;29;20029;-75
2023/09/27 13:24:51;;;;;;;3.63;0.90;;;40.30;43.50;;;;;;4888387;29;20154;-76
2023/09/27 13:27:17;;;;;;;5.18;0.80;;;40.50;44.10;;;;;;4888000;29;20218;-75
2023/09/27 13:29:43;;;;;;;2.33;0.90;;;40.80;43.30;;;;;;4887952;29;20055;-76
2023/09/27 13:32:09;;;;;;;3.20;0.90;;;39.50;43.60;;;;;;4887856;29;20212;-77
2023/09/27 13:34:35;;;;;;;4.72;1.08;;;38.80;44.00;;;;;;4871653;29;20029;-75
2023/09/27 13:37:01;;;;;;;2.50;1.23;;;38.70;44.90;;;;;;4888055;29;20029;-77
2023/09/27 13:39:30;;;;;;;3.35;1.08;;;38.00;45.20;;;;;;4887511;29;20025;-77
2023/09/27 13:41:56;;;;;;;3.90;1.45;;;38.00;46.10;;;;;;4888138;29;20045;-75
2023/09/27 13:44:22;;;;;;;3.28;1.17;;;37.90;47.20;;;;;;4887165;29;20036;-74
2023/09/27 13:46:49;;;;;;;3.63;1.15;;;37.90;47.30;;;;;;4887706;29;20240;-74
2023/09/27 13:49:15;;;;;;;2.85;1.17;;;38.30;47.10;;;;;;4890756;29;20075;-73
2023/09/27 13:51:41;;;;;;;3.45;1.20;;;38.60;47.20;;;;;;4884858;29;20089;-72
2023/09/27 13:54:07;;;;;;;2.50;1.20;;;39.60;45.90;;;;;;4886787;29;20316;-74
2023/09/27 13:56:34;;;;;;;2.67;1.10;;;40.50;45.60;;;;;;4888951;29;20032;-74
2023/09/27 13:59:00;;;;;;;4.70;1.02;;;41.00;45.50;;;;;;4889872;29;20020;-75
2023/09/27 14:01:26;;;;;;;3.05;1.20;;;40.30;45.00;;;;;;4893900;29;20051;-73
2023/09/27 14:03:53;;;;;;;4.13;1.23;;;39.10;45.40;;;;;;4887949;29;20049;-72
2023/09/27 14:06:19;;;;;;;4.97;1.50;;;37.20;46.70;;;;;;4891961;29;20045;-75
2023/09/27 14:08:47;;;;;;;4.20;1.30;;;35.90;48.40;;;;;;4894808;29;20100;-75
2023/09/27 14:11:13;;;;;;;4.18;1.40;;;35.60;49.20;;;;;;4899287;29;20043;-73
2023/09/27 14:13:39;;;;;;;2.78;1.30;;;36.30;49.60;;;;;;4901148;29;20028;-72
2023/09/27 14:16:07;;;;;;;3.97;1.05;;;38.30;48.10;;;;;;4896411;29;20028;-73
2023/09/27 14:18:33;;;;;;;7.18;1.83;;;40.50;44.90;;;;;;4888259;29;20303;-75
2023/09/27 14:20:58;;;;;;;2.83;1.20;;;41.90;44.00;;;;;;4883717;29;20048;-73
2023/09/27 14:23:26;;;;;;;2.00;1.00;;;42.90;42.70;;;;;;4886991;29;20036;-73
2023/09/27 14:25:52;;;;;;;3.75;1.00;;;43.70;42.40;;;;;;4886343;29;20080;-74
2023/09/27 14:28:18;;;;;;;2.17;1.10;;;44.00;42.00;;;;;;4887199;29;20025;-74
2023/09/27 14:30:44;;;;;;;3.83;1.70;;;43.90;41.80;;;;;;4887376;29;20071;-74
2023/09/27 14:33:10;;;;;;;2.15;0.90;;;44.40;41.50;;;;;;4882619;29;20073;-75
2023/09/27 14:35:36;;;;;;;2.90;1.10;;;44.70;41.40;;;;;;4885152;29;20370;-74
2023/09/27 14:38:03;;;;;;;2.53;0.75;;;45.00;41.20;;;;;;4887014;29;20358;-74
2023/09/27 14:40:29;;;;;;;4.22;1.08;;;44.90;40.70;;;;;;4887331;29;20063;-75
2023/09/27 14:42:54;;;;;;;2.47;0.80;;;45.30;40.50;;;;;;4887389;29;20017;-75
2023/09/27 14:45:20;;;;;;;1.47;0.60;;;45.90;40.50;;;;;;4887210;29;20211;-74
2023/09/27 14:47:52;;;;;;;2.23;0.70;;;45.60;40.20;;;;;;4887327;29;20278;-74
2023/09/27 14:50:18;;;;;;;2.35;0.98;;;45.20;41.10;;;;;;4885862;29;20040;-75
2023/09/27 14:52:44;;;;;;;4.97;0.87;;;45.00;40.30;;;;;;4887566;29;20266;-75
2023/09/27 14:55:10;;;;;;;1.30;0.70;;;44.30;40.40;;;;;;4887835;29;20116;-73
2023/09/27 14:57:37;;;;;;;1.98;0.80;;;44.30;40.90;;;;;;4889432;29;20364;-74
2023/09/27 15:00:03;;;;;;;;;;;44.30;41.10;;;;;;4890603;29;20069;-75
2023/09/27 15:02:32;;;;;;;2.83;1.20;;;44.40;40.90;;;;;;4890470;29;19911;-74
2023/09/27 15:04:57;;;;;;;3.47;1.30;;;43.70;40.90;;;;;;4890407;29;20104;-74
2023/09/27 15:07:23;;;;;;;3.08;0.98;;;43.50;41.10;;;;;;4885798;29;20037;-73
2023/09/27 15:09:49;;;;;;;2.88;1.08;;;42.80;41.20;;;;;;4890191;29;20099;-73
2023/09/27 15:12:17;;;;;;;2.72;0.90;;;42.50;41.40;;;;;;4890030;29;20032;-74
2023/09/27 15:14:43;;;;;;;2.85;0.80;;;42.30;42.10;;;;;;4890275;29;20270;-75
2023/09/27 15:17:17;;;;;;;1.88;0.90;;;42.70;41.70;;;;;;4885535;29;20048;-74
2023/09/27 15:19:43;;;;;;;3.53;1.05;;;43.40;41.60;;;;;;4889360;29;20029;-75
2023/09/27 15:22:09;;;;;;;2.13;1.05;;;43.80;40.90;;;;;;4889612;29;20039;-75
2023/09/27 15:24:36;;;;;;;5.70;1.25;;;43.70;41.00;;;;;;4889537;29;20029;-74
2023/09/27 15:27:03;;;;;;;2.50;0.88;;;44.00;41.10;;;;;;4888888;29;20025;-74
2023/09/27 15:29:28;;;;;;;1.95;0.80;;;43.60;41.30;;;;;;4890045;29;20029;-74
2023/09/27 15:31:54;;;;;;;5.30;1.30;;;43.60;41.20;;;;;;4889014;29;20204;-74
2023/09/27 15:34:21;;;;;;;1.90;0.90;;;44.00;41.00;;;;;;4888515;29;20067;-74
2023/09/27 15:36:48;;;;;;;;;;;44.00;41.30;;;;;;4890207;29;20121;-74
2023/09/27 15:39:17;;;;;;;3.38;1.10;;;44.10;41.10;;;;;;4888459;29;20410;-75
2023/09/27 15:41:45;;;;;;;2.88;0.93;;;44.00;41.60;;;;;;4889268;29;20036;-74
2023/09/27 15:44:11;;;;;;;2.53;1.20;;;43.90;41.00;;;;;;4870760;29;20045;-75
2023/09/27 15:46:41;;;;;;;3.65;1.00;;;43.80;41.10;;;;;;4889273;29;20028;-74
2023/09/27 15:49:08;;;;;;;2.00;1.00;;;43.70;41.10;;;;;;4889283;29;20142;-74
2023/09/27 15:51:37;;;;;;;2.95;1.38;;;43.60;41.20;;;;;;4885675;29;20059;-75
2023/09/27 15:54:03;;;;;;;2.58;1.20;;;43.60;41.20;;;;;;4888756;29;20032;-76
2023/09/27 15:56:29;;;;;;;1.77;0.90;;;43.60;41.80;;;;;;4887406;29;20053;-74
2023/09/27 15:58:55;;;;;;;3.10;1.02;;;42.90;40.90;;;;;;4889855;29;20445;-75
2023/09/27 16:01:21;;;;;;;2.10;1.20;;;43.20;41.70;;;;;;4888587;29;20251;-75
2023/09/27 16:03:47;;;;;;;2.67;1.40;;;43.60;41.50;;;;;;4889614;29;20260;-76
2023/09/27 16:06:16;;;;;;;3.53;1.30;;;43.40;41.80;;;;;;4888290;29;20092;-76
2023/09/27 16:08:42;;;;;;;2.25;0.98;;;43.50;41.80;;;;;;4889753;29;20240;-77
2023/09/27 16:11:08;;;;;;;3.03;1.40;;;41.90;41.90;;;;;;4887759;29;20032;-76
2023/09/27 16:13:33;;;;;;;2.25;1.17;;;40.80;42.90;;;;;;4890084;29;20044;-80
2023/09/27 16:15:59;;;;;;;3.40;1.50;;;39.70;44.40;;;;;;4889375;29;20091;-74
2023/09/27 16:18:28;;;;;;;4.13;1.77;;;38.70;45.30;;;;;;4889003;29;20024;-76
2023/09/27 16:20:53;;;;;;;2.60;1.63;;;37.70;46.60;;;;;;4894089;29;20267;-76
2023/09/27 16:23:20;;;;;;;4.53;2.00;;;36.40;47.60;;;;;;4888980;29;20061;-74
2023/09/27 16:25:46;;;;;;;4.75;1.67;;;35.20;49.20;;;;;;4887710;29;20036;-74
2023/09/27 16:28:13;;;;;;;2.67;1.70;;;34.10;50.30;;;;;;4888621;29;20032;-74
2023/09/27 16:30:39;;;;;;;3.22;1.70;;;32.80;52.20;;;;;;4887759;29;20032;-77
2023/09/27 16:33:05;;;;;;;6.22;1.90;;;32.10;52.80;;;;;;4888609;29;20102;-76
2023/09/27 16:35:31;;;;;;;4.05;1.52;;;31.40;53.70;;;;;;4889005;29;20037;-74
2023/09/27 16:37:59;;;;;;;5.03;2.38;;;31.20;54.80;;;;;;4888890;29;20045;-74
2023/09/27 16:40:25;;;;;;;3.17;2.00;;;30.80;55.40;;;;;;4888256;29;20346;-75
2023/09/27 16:42:51;;;;;;;3.42;1.88;;;30.60;55.90;;;;;;4888957;29;20031;-74
2023/09/27 16:45:17;;;;;;;4.55;2.28;;;30.30;56.60;;;;;;4888672;29;20040;-75
2023/09/27 16:47:43;;;;;;;6.40;2.38;;;30.00;57.30;;;;;;4888310;29;20031;-75
2023/09/27 16:50:10;;;;;;;5.45;2.63;;;29.80;57.30;;;;;;4888612;29;20025;-75
2023/09/27 16:52:35;;;;;;;3.38;1.80;;;29.60;58.00;;;;;;4888555;29;20056;-74
2023/09/27 16:55:02;;;;;;;3.70;1.80;;;29.20;58.50;;;;;;4887647;29;20033;-74
2023/09/27 16:57:27;;;;;;;4.50;2.15;;;28.90;58.90;;;;;;4888542;29;20188;-74
2023/09/27 16:59:53;;;;;;;4.78;1.92;;;28.50;59.20;;;;;;4885646;29;20035;-74
2023/09/27 17:02:19;;;;;;;5.97;2.33;;;27.90;61.90;;;;;;4886009;29;20029;-74
2023/09/27 17:04:45;;;;;;;5.43;2.08;;;27.60;62.10;;;;;;4887160;29;20040;-73
2023/09/27 17:07:14;;;;;;;3.58;2.15;;;27.10;63.00;;;;;;4871083;29;20041;-75
2023/09/27 17:09:39;;;;;;;5.35;2.53;;;26.80;64.00;;;;;;4886436;29;20099;-74
2023/09/27 17:12:06;;;;;;;3.97;2.22;;;26.70;64.20;;;;;;4887554;29;20032;-75
2023/09/27 17:14:31;;;;;;;4.75;2.67;;;26.40;64.90;;;;;;4888473;29;20048;-74
2023/09/27 17:16:57;;;;;;;4.95;2.60;;;26.20;65.10;;;;;;4888338;29;20148;-74
2023/09/27 17:19:24;;;;;;;4.53;2.75;;;26.00;66.20;;;;;;4887024;29;20033;-75
2023/09/27 17:21:52;;;;;;;5.13;2.70;;;25.70;66.60;;;;;;4884161;29;20033;-74
2023/09/27 17:24:22;;;;;;;4.50;2.13;;;25.40;67.20;;;;;;4887108;29;20261;-75
2023/09/27 17:26:47;;;;;;;4.82;2.33;;;25.10;68.10;;;;;;4888105;29;20195;-75
2023/09/27 17:29:14;;;;;;;3.97;2.50;;;24.80;68.50;;;;;;4887024;29;20025;-75
2023/09/27 17:31:40;;;;;;;3.97;2.13;;;24.60;69.50;;;;;;4887605;29;20041;-74
2023/09/27 17:34:07;;;;;;;4.82;2.45;;;24.50;69.60;;;;;;4888020;29;20112;-75
2023/09/27 17:36:42;;;;;;;4.30;2.55;;;24.50;69.90;;;;;;4887216;29;20367;-75
2023/09/27 17:39:08;;;;;;;4.82;2.53;;;24.40;70.00;;;;;;4887829;29;20116;-75
2023/09/27 17:41:33;;;;;;;4.60;2.70;;;24.30;70.30;;;;;;4884449;29;20033;-74
2023/09/27 17:44:00;;;;;;;6.03;2.90;;;24.30;70.50;;;;;;4888432;29;20025;-73
2023/09/27 17:46:27;;;;;;;5.32;3.00;;;24.30;70.70;;;;;;4886991;29;20323;-74
2023/09/27 17:49:04;;;;;;;5.45;3.00;;;24.20;71.20;;;;;;4887958;29;20033;-80
2023/09/27 17:51:31;;;;;;;6.40;3.10;;;24.10;71.30;;;;;;4870592;29;20057;-74
2023/09/27 17:53:59;;;;;;;7.28;3.53;;;24.00;71.60;;;;;;4887860;29;20036;-74
2023/09/27 17:56:25;;;;;;;5.60;3.45;;;23.70;72.70;;;;;;4887185;29;20024;-74
2023/09/27 17:58:50;;;;;;;8.55;3.53;;;23.50;73.00;;;;;;4888030;29;20029;-74
2023/09/27 18:01:16;;;;;;;7.40;3.25;;;23.40;73.40;;;;;;4888375;29;20036;-74
2023/09/27 18:03:44;;;;;;;5.53;2.80;;;23.40;73.20;;;;;;4891119;29;20036;-76
2023/09/27 18:06:19;;;;;;;4.35;2.38;;;23.20;73.70;;;;;;4870006;29;20073;-76
2023/09/27 18:08:45;;;;;;;4.65;2.90;;;22.90;74.60;;;;;;4885945;29;20037;-77
2023/09/27 18:11:15;;;;;;;4.20;2.10;;;22.80;76.00;;;;;;4887343;29;20092;-75